Colfax, Illinois
Current Conditions -  °F | °C
As of 7:56 AM on Monday 22 Dec 2014 (Local Time) from KBMI Reporting Station
Light Rain Light Rain  
Wind Chill: 24°   Ceiling: 4300
Heat Index: 34°   Visibility: 6mi
Dew Point: 31°   Wind: 15mph
Humidity: 89%   Direction: 140°SE
Pressure: 29.85"   Gusts: NA
Location:  40.57°N, 88.62°W
Report Text: KBMI 221356Z 14013KT 6SM -RA BR OVC043 01/M01 A2985 RMK AO2 T00111005 UPB48E51RAB51 P0000 SLP121
Loading
Personal Weather Stations






























Interactive Weather Map New forecast layout! Learn more

10-Day Weather Forecast

Advertisements
Track Severe Weather on mobile